createdAt,value
2023-09-23T00:00:35.868Z,11.70
2023-09-23T00:01:40.022Z,13.40
2023-09-23T00:02:46.052Z,10.98
2023-09-23T00:03:49.020Z,13.40
2023-09-23T00:04:51.762Z,11.00
2023-09-23T00:05:54.481Z,17.83
2023-09-23T00:06:57.046Z,11.68
2023-09-23T00:08:00.358Z,13.00
2023-09-23T00:09:03.795Z,10.00
2023-09-23T00:10:07.146Z,11.75
2023-09-23T00:11:09.733Z,13.38
2023-09-23T00:12:13.486Z,11.55
2023-09-23T00:13:16.716Z,17.27
2023-09-23T00:14:19.310Z,15.50
2023-09-23T00:15:21.982Z,10.35
2023-09-23T00:16:24.836Z,13.95
2023-09-23T00:17:28.417Z,13.15
2023-09-23T00:18:31.255Z,20.83
2023-09-23T00:19:35.764Z,17.77
2023-09-23T00:20:39.380Z,15.93
2023-09-23T00:21:42.076Z,11.00
2023-09-23T00:22:48.314Z,21.05
2023-09-23T00:23:50.715Z,36.30
2023-09-23T00:24:54.230Z,56.15
2023-09-23T00:25:56.854Z,42.72
2023-09-23T00:27:01.036Z,38.42
2023-09-23T00:28:04.151Z,25.70
2023-09-23T00:29:06.691Z,24.48
2023-09-23T00:30:10.584Z,14.02
2023-09-23T00:31:15.839Z,10.98
2023-09-23T00:32:19.797Z,12.90
2023-09-23T00:33:22.156Z,11.18
2023-09-23T00:34:25.532Z,12.07
2023-09-23T00:35:29.489Z,12.38
2023-09-23T00:36:31.941Z,7.10
2023-09-23T00:37:35.276Z,14.80
2023-09-23T00:38:38.356Z,11.13
2023-09-23T00:39:41.894Z,16.50
2023-09-23T00:40:45.696Z,12.30
2023-09-23T00:41:48.067Z,13.55
2023-09-23T00:42:50.755Z,9.30
2023-09-23T00:43:53.145Z,18.17
2023-09-23T00:44:55.571Z,14.02
2023-09-23T00:46:00.014Z,10.38
2023-09-23T00:47:03.138Z,15.20
2023-09-23T00:48:09.926Z,14.38
2023-09-23T00:49:14.132Z,19.88
2023-09-23T00:50:23.626Z,9.63
2023-09-23T00:51:26.178Z,13.30
2023-09-23T00:52:28.893Z,19.23
2023-09-23T00:53:31.716Z,9.07
2023-09-23T00:54:37.416Z,11.98
2023-09-23T00:55:43.890Z,11.38
2023-09-23T00:56:48.004Z,19.40
2023-09-23T00:57:54.248Z,17.05
2023-09-23T00:58:56.910Z,15.48
2023-09-23T01:00:00.352Z,13.57
2023-09-23T01:01:02.653Z,12.48
2023-09-23T01:02:06.390Z,12.82
2023-09-23T01:03:09.020Z,16.50
2023-09-23T01:04:14.691Z,18.30
2023-09-23T01:05:20.884Z,15.10
2023-09-23T01:06:23.429Z,15.98
2023-09-23T01:07:28.431Z,12.40
2023-09-23T01:08:31.356Z,16.67
2023-09-23T01:09:34.818Z,11.38
2023-09-23T01:10:37.106Z,16.73
2023-09-23T01:11:39.499Z,8.60
2023-09-23T01:12:41.865Z,9.25
2023-09-23T01:13:46.284Z,16.08
2023-09-23T01:14:49.316Z,7.60
2023-09-23T01:15:52.883Z,12.00
2023-09-23T01:16:58.769Z,10.80
2023-09-23T01:18:01.355Z,11.48
2023-09-23T01:19:04.413Z,15.38
2023-09-23T01:20:10.556Z,11.00
2023-09-23T01:21:14.139Z,12.45
2023-09-23T01:22:25.040Z,8.65
2023-09-23T01:23:27.548Z,15.18
2023-09-23T01:24:31.596Z,15.27
2023-09-23T01:25:37.547Z,12.15
2023-09-23T01:26:40.411Z,15.82
2023-09-23T01:27:42.928Z,7.97
2023-09-23T01:28:46.936Z,12.40
2023-09-23T01:29:53.990Z,9.55
2023-09-23T01:30:56.352Z,12.07
2023-09-23T01:32:05.302Z,13.70
2023-09-23T01:33:15.378Z,11.13
2023-09-23T01:34:17.918Z,12.32
2023-09-23T01:35:21.940Z,11.82
2023-09-23T01:36:24.640Z,13.38
2023-09-23T01:37:27.527Z,9.18
2023-09-23T01:38:32.211Z,16.17
2023-09-23T01:39:35.536Z,10.93
2023-09-23T01:40:40.808Z,11.05
2023-09-23T01:41:43.118Z,18.05
2023-09-23T01:42:55.240Z,7.72
2023-09-23T01:43:58.448Z,12.85
2023-09-23T01:45:01.090Z,10.25
2023-09-23T01:46:05.650Z,12.73
2023-09-23T01:47:08.428Z,10.23
2023-09-23T01:48:10.920Z,11.68
2023-09-23T01:49:13.351Z,8.65
2023-09-23T01:50:19.488Z,7.63
2023-09-23T01:51:23.989Z,10.93
2023-09-23T01:52:26.477Z,10.27
2023-09-23T01:53:29.704Z,12.07
2023-09-23T01:54:32.297Z,8.50
2023-09-23T01:55:34.628Z,12.98
2023-09-23T01:56:37.524Z,7.13
2023-09-23T01:57:42.797Z,7.25
2023-09-23T01:58:45.743Z,10.40
2023-09-23T01:59:48.945Z,10.73
2023-09-23T02:00:56.976Z,11.45
2023-09-23T02:02:00.520Z,5.85
2023-09-23T02:03:04.232Z,10.70
2023-09-23T02:04:08.575Z,9.70
2023-09-23T02:05:11.244Z,11.38
2023-09-23T02:06:14.178Z,8.73
2023-09-23T02:07:16.625Z,9.77
2023-09-23T02:08:18.940Z,8.27
2023-09-23T02:09:21.261Z,9.85
2023-09-23T02:10:25.768Z,11.98
2023-09-23T02:11:28.128Z,8.75
2023-09-23T02:12:32.630Z,6.90
2023-09-23T02:13:38.130Z,10.38
2023-09-23T02:14:43.356Z,10.30
2023-09-23T02:15:46.329Z,9.15
2023-09-23T02:16:48.733Z,9.93
2023-09-23T02:17:51.610Z,8.55
2023-09-23T02:18:53.957Z,6.40
2023-09-23T02:19:56.431Z,6.40
2023-09-23T02:20:58.729Z,9.43
2023-09-23T02:22:06.941Z,7.40
2023-09-23T02:23:10.317Z,6.53
2023-09-23T02:24:13.022Z,7.18
2023-09-23T02:25:15.982Z,9.02
2023-09-23T02:26:18.359Z,8.98
2023-09-23T02:27:22.916Z,8.68
2023-09-23T02:28:25.290Z,7.38
2023-09-23T02:29:28.771Z,6.85
2023-09-23T02:30:33.632Z,8.48
2023-09-23T02:31:37.519Z,11.82
2023-09-23T02:32:44.970Z,9.13
2023-09-23T02:33:47.513Z,8.10
2023-09-23T02:34:49.854Z,9.40
2023-09-23T02:35:52.948Z,12.65
2023-09-23T02:36:55.380Z,12.70
2023-09-23T02:37:59.650Z,6.47
2023-09-23T02:39:11.796Z,10.38
2023-09-23T02:40:15.585Z,9.45
2023-09-23T02:41:18.348Z,9.10
2023-09-23T02:42:20.791Z,7.88
2023-09-23T02:43:23.062Z,11.18
2023-09-23T02:44:26.084Z,12.20
2023-09-23T02:45:28.534Z,8.65
2023-09-23T02:46:30.930Z,9.52
2023-09-23T02:47:34.114Z,18.08
2023-09-23T02:48:36.497Z,10.35
2023-09-23T02:49:38.980Z,7.60
2023-09-23T02:50:42.173Z,10.93
2023-09-23T02:51:45.608Z,10.98
2023-09-23T02:52:50.992Z,7.20
2023-09-23T02:53:53.685Z,8.93
2023-09-23T02:54:56.520Z,9.18
2023-09-23T02:56:09.296Z,11.02
2023-09-23T02:57:13.532Z,5.60
2023-09-23T02:58:16.122Z,8.52
2023-09-23T02:59:27.464Z,8.20
2023-09-23T03:00:34.472Z,8.27
2023-09-23T03:01:37.252Z,7.95
2023-09-23T03:02:40.132Z,11.65
2023-09-23T03:03:42.881Z,9.15
2023-09-23T03:04:45.452Z,9.18
2023-09-23T03:05:56.813Z,9.52
2023-09-23T03:07:01.109Z,9.38
2023-09-23T03:08:03.767Z,7.43
2023-09-23T03:09:09.825Z,9.98
2023-09-23T03:10:14.922Z,6.95
2023-09-23T03:11:20.069Z,10.32
2023-09-23T03:12:24.481Z,9.93
2023-09-23T03:13:27.371Z,9.10
2023-09-23T03:14:44.539Z,11.65
2023-09-23T03:15:54.985Z,8.45
2023-09-23T03:16:58.965Z,10.48
2023-09-23T03:18:02.255Z,13.23
2023-09-23T03:19:16.064Z,9.80
2023-09-23T03:20:22.491Z,6.60
2023-09-23T03:21:25.192Z,8.43
2023-09-23T03:22:28.277Z,12.38
2023-09-23T03:23:30.716Z,19.55
2023-09-23T03:24:33.021Z,7.35
2023-09-23T03:25:46.265Z,10.40
2023-09-23T03:26:52.166Z,7.68
2023-09-23T03:27:54.757Z,10.10
2023-09-23T03:28:58.960Z,7.07
2023-09-23T03:30:04.754Z,8.20
2023-09-23T03:31:11.392Z,8.68
2023-09-23T03:32:19.343Z,10.80
2023-09-23T03:33:22.652Z,9.55
2023-09-23T03:34:27.745Z,8.52
2023-09-23T03:35:31.830Z,13.43
2023-09-23T03:36:34.926Z,5.80
2023-09-23T03:37:37.489Z,8.48
2023-09-23T03:38:39.834Z,11.50
2023-09-23T03:39:42.821Z,11.88
2023-09-23T03:41:01.126Z,9.52
2023-09-23T03:42:05.130Z,8.85
2023-09-23T03:43:07.778Z,9.13
2023-09-23T03:44:10.218Z,11.10
2023-09-23T03:45:14.082Z,9.95
2023-09-23T03:46:18.481Z,8.65
2023-09-23T03:47:20.998Z,14.98
2023-09-23T03:48:23.672Z,10.48
2023-09-23T03:49:26.131Z,8.80
2023-09-23T03:50:28.893Z,7.65
2023-09-23T03:51:32.472Z,10.30
2023-09-23T03:52:35.380Z,8.60
2023-09-23T03:53:38.070Z,9.52
2023-09-23T03:54:40.476Z,6.38
2023-09-23T03:55:43.038Z,7.53
2023-09-23T03:56:45.445Z,8.63
2023-09-23T03:57:47.883Z,9.75
2023-09-23T03:58:50.700Z,9.05
2023-09-23T03:59:53.082Z,12.90
2023-09-23T04:00:56.335Z,11.63
2023-09-23T04:01:59.082Z,7.07
2023-09-23T04:03:04.279Z,12.20
2023-09-23T04:04:08.603Z,11.63
2023-09-23T04:05:11.091Z,8.13
2023-09-23T04:06:13.894Z,8.85
2023-09-23T04:07:17.339Z,13.65
2023-09-23T04:08:19.789Z,9.43
2023-09-23T04:09:22.186Z,18.38
2023-09-23T04:10:24.794Z,12.57
2023-09-23T04:11:27.707Z,12.50
2023-09-23T04:12:30.182Z,11.85
2023-09-23T04:13:33.233Z,13.20
2023-09-23T04:14:35.548Z,10.10
2023-09-23T04:15:37.826Z,7.85
2023-09-23T04:16:40.341Z,9.80
2023-09-23T04:17:43.232Z,13.68
2023-09-23T04:18:45.846Z,11.25
2023-09-23T04:19:48.451Z,11.32
2023-09-23T04:20:52.127Z,10.57
2023-09-23T04:21:55.211Z,13.70
2023-09-23T04:22:57.609Z,14.82
2023-09-23T04:24:02.123Z,13.70
2023-09-23T04:25:06.549Z,17.55
2023-09-23T04:26:09.750Z,18.48
2023-09-23T04:27:12.190Z,14.13
2023-09-23T04:28:14.914Z,21.20
2023-09-23T04:29:21.154Z,17.48
2023-09-23T04:30:23.855Z,23.15
2023-09-23T04:31:26.191Z,18.23
2023-09-23T04:32:28.835Z,16.60
2023-09-23T04:33:31.192Z,20.10
2023-09-23T04:34:37.139Z,17.02
2023-09-23T04:35:40.173Z,18.38
2023-09-23T04:36:42.533Z,14.35
2023-09-23T04:37:45.763Z,18.73
2023-09-23T04:38:49.245Z,18.95
2023-09-23T04:39:51.954Z,21.60
2023-09-23T04:40:54.494Z,16.60
2023-09-23T04:41:56.945Z,17.85
2023-09-23T04:42:59.484Z,16.27
2023-09-23T04:44:02.132Z,16.90
2023-09-23T04:45:05.473Z,13.77
2023-09-23T04:46:07.856Z,16.23
2023-09-23T04:47:10.793Z,16.40
2023-09-23T04:48:13.382Z,20.45
2023-09-23T04:49:16.840Z,15.02
2023-09-23T04:50:19.825Z,14.70
2023-09-23T04:51:22.172Z,13.25
2023-09-23T04:52:24.640Z,10.98
2023-09-23T04:53:28.287Z,13.27
2023-09-23T04:54:30.743Z,12.40
2023-09-23T04:55:33.794Z,9.98
2023-09-23T04:56:36.598Z,9.65
2023-09-23T04:57:38.962Z,12.52
2023-09-23T04:58:41.319Z,12.75
2023-09-23T04:59:43.702Z,15.05
2023-09-23T05:00:46.145Z,15.05
2023-09-23T05:01:48.707Z,10.02
2023-09-23T05:02:51.643Z,9.25
2023-09-23T05:03:56.668Z,9.25
2023-09-23T05:04:59.559Z,10.25
2023-09-23T05:06:02.232Z,7.57
2023-09-23T05:07:04.491Z,7.70
2023-09-23T05:08:11.086Z,9.55
2023-09-23T05:09:13.717Z,7.93
2023-09-23T05:10:16.170Z,8.52
2023-09-23T05:11:18.918Z,7.35
2023-09-23T05:12:22.237Z,7.40
2023-09-23T05:13:25.656Z,9.35
2023-09-23T05:14:28.124Z,4.88
2023-09-23T05:15:30.523Z,6.95
2023-09-23T05:16:32.824Z,6.93
2023-09-23T05:17:35.146Z,9.18
2023-09-23T05:18:38.351Z,6.90
2023-09-23T05:19:40.755Z,9.32
2023-09-23T05:20:43.107Z,9.20
2023-09-23T05:21:46.316Z,7.97
2023-09-23T05:22:49.348Z,9.02
2023-09-23T05:23:52.494Z,5.70
2023-09-23T05:24:59.093Z,6.07
2023-09-23T05:26:01.813Z,6.15
2023-09-23T05:27:04.880Z,5.47
2023-09-23T05:28:09.305Z,6.72
2023-09-23T05:29:12.776Z,4.95
2023-09-23T05:30:15.677Z,8.07
2023-09-23T05:31:18.719Z,7.43
2023-09-23T05:32:21.837Z,6.60
2023-09-23T05:33:24.354Z,8.50
2023-09-23T05:34:27.172Z,5.65
2023-09-23T05:35:29.381Z,6.88
2023-09-23T05:36:34.753Z,7.30
2023-09-23T05:37:41.005Z,10.73
2023-09-23T05:38:43.389Z,7.93
2023-09-23T05:39:47.316Z,10.32
2023-09-23T05:40:53.310Z,7.13
2023-09-23T05:41:56.134Z,7.60
2023-09-23T05:42:58.475Z,7.38
2023-09-23T05:44:01.047Z,9.68
2023-09-23T05:45:05.120Z,5.53
2023-09-23T05:46:10.897Z,6.75
2023-09-23T05:47:13.689Z,7.30
2023-09-23T05:48:16.571Z,5.97
2023-09-23T05:49:20.257Z,7.65
2023-09-23T05:50:23.703Z,5.68
2023-09-23T05:51:26.083Z,5.97
2023-09-23T05:52:29.293Z,9.57
2023-09-23T05:53:33.490Z,9.38
2023-09-23T05:54:35.981Z,7.45
2023-09-23T05:55:38.488Z,6.70
2023-09-23T05:56:40.734Z,7.32
2023-09-23T05:57:43.584Z,8.18
2023-09-23T05:58:47.450Z,5.93
2023-09-23T05:59:49.816Z,5.88
2023-09-23T06:00:52.639Z,7.80
2023-09-23T06:01:55.008Z,7.95
2023-09-23T06:02:57.586Z,7.72
2023-09-23T06:04:00.028Z,5.30
2023-09-23T06:05:03.511Z,4.85
2023-09-23T06:06:06.027Z,5.65
2023-09-23T06:07:08.444Z,5.03
2023-09-23T06:08:11.646Z,3.97
2023-09-23T06:09:15.555Z,5.30
2023-09-23T06:10:20.240Z,7.50
2023-09-23T06:11:22.778Z,8.70
2023-09-23T06:12:31.077Z,4.40
2023-09-23T06:13:33.854Z,4.38
2023-09-23T06:14:36.327Z,5.20
2023-09-23T06:15:38.752Z,8.45
2023-09-23T06:16:41.800Z,4.47
2023-09-23T06:17:44.207Z,4.57
2023-09-23T06:18:46.576Z,4.32
2023-09-23T06:19:49.273Z,7.50
2023-09-23T06:20:59.350Z,3.30
2023-09-23T06:22:01.742Z,3.17
2023-09-23T06:23:04.412Z,8.73
2023-09-23T06:24:07.381Z,3.75
2023-09-23T06:25:10.170Z,2.50
2023-09-23T06:26:12.584Z,4.50
2023-09-23T06:27:15.299Z,3.83
2023-09-23T06:28:17.594Z,3.67
2023-09-23T06:29:19.977Z,2.22
2023-09-23T06:30:22.385Z,2.80
2023-09-23T06:31:25.205Z,3.10
2023-09-23T06:32:28.394Z,4.10
2023-09-23T06:33:31.518Z,7.30
2023-09-23T06:34:33.803Z,4.25
2023-09-23T06:35:36.537Z,3.92
2023-09-23T06:36:39.029Z,1.80
2023-09-23T06:37:41.549Z,2.00
2023-09-23T06:38:44.029Z,2.10
2023-09-23T06:39:46.410Z,4.22
2023-09-23T06:40:48.959Z,2.58
2023-09-23T06:41:51.788Z,4.88
2023-09-23T06:42:54.138Z,3.28
2023-09-23T06:43:56.707Z,3.30
2023-09-23T06:45:00.500Z,3.03
2023-09-23T06:46:03.009Z,2.40
2023-09-23T06:47:05.741Z,2.30
2023-09-23T06:48:08.239Z,2.92
2023-09-23T06:49:10.704Z,7.60
2023-09-23T06:50:13.158Z,2.60
2023-09-23T06:51:15.558Z,2.30
2023-09-23T06:52:17.883Z,5.10
2023-09-23T06:53:20.486Z,4.85
2023-09-23T06:54:23.056Z,1.95
2023-09-23T06:55:25.624Z,2.70
2023-09-23T06:56:28.025Z,2.00
2023-09-23T06:57:31.276Z,1.90
2023-09-23T06:58:33.536Z,1.58
2023-09-23T06:59:36.003Z,2.50
2023-09-23T07:00:38.316Z,3.90
2023-09-23T07:01:40.777Z,3.25
2023-09-23T07:02:43.243Z,1.30
2023-09-23T07:03:46.045Z,1.55
2023-09-23T07:04:49.177Z,1.20
2023-09-23T07:05:52.097Z,1.60
2023-09-23T07:06:54.548Z,1.55
2023-09-23T07:07:56.863Z,2.83
2023-09-23T07:08:59.395Z,2.85
2023-09-23T07:10:01.796Z,2.30
2023-09-23T07:11:04.135Z,1.58
2023-09-23T07:12:08.193Z,3.03
2023-09-23T07:13:13.163Z,2.78
2023-09-23T07:14:15.717Z,1.30
2023-09-23T07:15:18.019Z,1.80
2023-09-23T07:16:20.382Z,1.60
2023-09-23T07:17:23.062Z,1.13
2023-09-23T07:18:25.329Z,2.97
2023-09-23T07:19:27.703Z,1.60
2023-09-23T07:20:30.228Z,1.60
2023-09-23T07:21:32.719Z,2.67
2023-09-23T07:22:35.090Z,1.15
2023-09-23T07:23:37.550Z,1.60
2023-09-23T07:24:40.029Z,1.58
2023-09-23T07:25:43.617Z,2.80
2023-09-23T07:26:46.227Z,3.13
2023-09-23T07:27:49.068Z,1.95
2023-09-23T07:28:54.508Z,1.40
2023-09-23T07:29:57.115Z,1.90
2023-09-23T07:30:59.624Z,2.83
2023-09-23T07:32:02.060Z,3.20
2023-09-23T07:33:04.791Z,2.38
2023-09-23T07:34:07.222Z,2.40
2023-09-23T07:35:10.075Z,4.47
2023-09-23T07:36:16.255Z,2.00
2023-09-23T07:37:18.714Z,1.40
2023-09-23T07:38:21.179Z,1.95
2023-09-23T07:39:23.582Z,2.08
2023-09-23T07:40:26.249Z,1.73
2023-09-23T07:41:28.734Z,3.67
2023-09-23T07:42:31.214Z,3.08
2023-09-23T07:43:34.044Z,2.22
2023-09-23T07:44:36.447Z,1.00
2023-09-23T07:45:38.702Z,3.35
2023-09-23T07:46:41.302Z,2.28
2023-09-23T07:47:43.853Z,2.63
2023-09-23T07:48:46.342Z,1.83
2023-09-23T07:49:48.970Z,2.33
2023-09-23T07:50:51.766Z,1.73
2023-09-23T07:51:54.492Z,2.45
2023-09-23T07:52:56.873Z,1.27
2023-09-23T07:53:59.182Z,4.47
2023-09-23T07:55:01.987Z,3.92
2023-09-23T07:56:04.548Z,5.65
2023-09-23T07:57:06.903Z,1.60
2023-09-23T07:58:09.240Z,2.78
2023-09-23T07:59:11.847Z,3.60
2023-09-23T08:00:14.450Z,1.10
2023-09-23T08:01:17.623Z,3.17
2023-09-23T08:02:20.006Z,3.20
2023-09-23T08:03:22.456Z,2.08
2023-09-23T08:04:24.804Z,3.45
2023-09-23T08:05:27.802Z,3.40
2023-09-23T08:06:30.095Z,1.45
2023-09-23T08:07:33.835Z,1.40
2023-09-23T08:08:36.200Z,0.98
2023-09-23T08:09:38.999Z,3.38
2023-09-23T08:10:41.312Z,1.17
2023-09-23T08:11:43.780Z,1.25
2023-09-23T08:12:46.411Z,3.70
2023-09-23T08:13:48.640Z,3.22
2023-09-23T08:14:52.132Z,1.85
2023-09-23T08:16:00.592Z,3.70
2023-09-23T08:17:03.534Z,2.05
2023-09-23T08:18:06.152Z,1.27
2023-09-23T08:19:08.633Z,1.17
2023-09-23T08:20:25.423Z,2.28
2023-09-23T08:21:28.126Z,1.10
2023-09-23T08:22:30.677Z,1.30
2023-09-23T08:23:33.000Z,1.00
2023-09-23T08:24:35.570Z,1.75
2023-09-23T08:25:37.858Z,2.55
2023-09-23T08:26:40.352Z,1.55
2023-09-23T08:27:43.257Z,1.08
2023-09-23T08:28:46.424Z,1.27
2023-09-23T08:29:50.936Z,1.35
2023-09-23T08:30:53.794Z,4.85
2023-09-23T08:31:56.357Z,3.75
2023-09-23T08:32:58.945Z,2.38
2023-09-23T08:34:01.563Z,3.10
2023-09-23T08:35:05.265Z,2.15
2023-09-23T08:36:07.922Z,0.77
2023-09-23T08:37:10.237Z,4.03
2023-09-23T08:38:12.615Z,1.05
2023-09-23T08:39:16.297Z,1.40
2023-09-23T08:40:20.888Z,3.10
2023-09-23T08:41:24.735Z,1.20
2023-09-23T08:42:28.620Z,1.10
2023-09-23T08:43:38.049Z,1.92
2023-09-23T08:44:41.280Z,1.85
2023-09-23T08:45:45.666Z,1.27
2023-09-23T08:46:52.577Z,1.67
2023-09-23T08:47:55.416Z,1.95
2023-09-23T08:49:02.283Z,0.90
2023-09-23T08:50:09.957Z,2.97
2023-09-23T08:51:13.520Z,2.88
2023-09-23T08:52:17.648Z,3.88
2023-09-23T08:53:21.096Z,1.08
2023-09-23T08:54:26.589Z,2.80
2023-09-23T08:55:29.619Z,2.70
2023-09-23T08:56:33.880Z,1.00
2023-09-23T08:57:36.626Z,0.77
2023-09-23T08:58:38.928Z,0.60
2023-09-23T08:59:41.941Z,0.80
2023-09-23T09:00:48.207Z,1.20
2023-09-23T09:01:50.818Z,1.52
2023-09-23T09:02:53.178Z,0.90
2023-09-23T09:03:55.583Z,0.65
2023-09-23T09:04:58.945Z,1.35
2023-09-23T09:06:02.285Z,3.58
2023-09-23T09:07:05.041Z,1.92
2023-09-23T09:08:08.470Z,1.25
2023-09-23T09:09:10.831Z,0.57
2023-09-23T09:10:13.296Z,0.93
2023-09-23T09:11:25.521Z,1.13
2023-09-23T09:12:28.326Z,0.80
2023-09-23T09:13:33.256Z,0.75
2023-09-23T09:14:35.690Z,1.00
2023-09-23T09:15:39.004Z,0.80
2023-09-23T09:16:41.425Z,1.20
2023-09-23T09:17:46.016Z,1.00
2023-09-23T09:18:52.691Z,0.47
2023-09-23T09:19:55.343Z,1.25
2023-09-23T09:20:58.174Z,1.02
2023-09-23T09:22:01.307Z,0.68
2023-09-23T09:23:04.019Z,0.88
2023-09-23T09:24:06.821Z,3.13
2023-09-23T09:25:12.893Z,1.55
2023-09-23T09:26:18.038Z,0.50
2023-09-23T09:27:22.314Z,3.60
2023-09-23T09:28:24.865Z,0.60
2023-09-23T09:29:27.493Z,1.33
2023-09-23T09:30:29.929Z,0.70
2023-09-23T09:31:36.512Z,1.17
2023-09-23T09:32:42.782Z,0.93
2023-09-23T09:33:52.063Z,3.00
2023-09-23T09:34:55.328Z,4.03
2023-09-23T09:35:58.264Z,0.70
2023-09-23T09:37:00.647Z,0.98
2023-09-23T09:38:17.468Z,1.10
2023-09-23T09:39:23.067Z,1.45
2023-09-23T09:40:26.964Z,2.28
2023-09-23T09:41:33.164Z,0.73
2023-09-23T09:42:36.557Z,1.00
2023-09-23T09:43:39.713Z,1.75
2023-09-23T09:44:43.385Z,0.98
2023-09-23T09:45:45.816Z,0.90
2023-09-23T09:46:50.111Z,1.42
2023-09-23T09:47:56.076Z,3.65
2023-09-23T09:49:00.859Z,1.45
2023-09-23T09:50:05.973Z,3.45
2023-09-23T09:51:15.433Z,1.83
2023-09-23T09:52:20.485Z,5.60
2023-09-23T09:53:23.514Z,1.75
2023-09-23T09:54:26.777Z,0.77
2023-09-23T09:55:29.837Z,1.00
2023-09-23T09:56:34.434Z,1.48
2023-09-23T09:57:36.994Z,1.50
2023-09-23T09:58:40.062Z,1.05
2023-09-23T09:59:43.422Z,6.35
2023-09-23T10:00:48.948Z,0.98
2023-09-23T10:01:52.060Z,3.33
2023-09-23T10:03:01.345Z,4.68
2023-09-23T10:04:11.542Z,0.82
2023-09-23T10:05:18.814Z,1.85
2023-09-23T10:06:27.678Z,1.08
2023-09-23T10:07:57.733Z,1.23
2023-09-23T10:09:00.057Z,2.00
2023-09-23T10:10:02.380Z,1.95
2023-09-23T10:11:06.079Z,1.10
2023-09-23T10:12:08.834Z,1.00
2023-09-23T10:13:15.842Z,1.42
2023-09-23T10:14:18.369Z,3.90
2023-09-23T10:15:30.196Z,1.38
2023-09-23T10:16:36.927Z,0.98
2023-09-23T10:17:42.560Z,0.82
2023-09-23T10:18:46.392Z,0.70
2023-09-23T10:19:50.533Z,1.75
2023-09-23T10:20:57.500Z,1.00
2023-09-23T10:22:14.657Z,0.75
2023-09-23T10:23:20.560Z,1.75
2023-09-23T10:24:24.448Z,1.27
2023-09-23T10:25:42.173Z,1.30
2023-09-23T10:26:45.073Z,0.63
2023-09-23T10:28:02.121Z,1.30
2023-09-23T10:29:06.471Z,1.15
2023-09-23T10:30:09.280Z,0.93
2023-09-23T10:31:15.339Z,0.90
2023-09-23T10:32:19.364Z,1.40
2023-09-23T10:33:21.963Z,2.97
2023-09-23T10:34:30.826Z,1.60
2023-09-23T10:35:39.365Z,0.82
2023-09-23T10:36:42.135Z,2.28
2023-09-23T10:37:46.270Z,1.20
2023-09-23T10:38:48.918Z,1.42
2023-09-23T10:39:51.431Z,3.15
2023-09-23T10:40:57.432Z,0.80
2023-09-23T10:41:59.922Z,4.07
2023-09-23T10:43:09.219Z,0.77
2023-09-23T10:44:15.127Z,1.23
2023-09-23T10:45:23.773Z,4.68
2023-09-23T10:46:26.352Z,1.90
2023-09-23T10:47:29.871Z,1.27
2023-09-23T10:48:33.012Z,1.30
2023-09-23T10:49:36.631Z,2.92
2023-09-23T10:50:41.341Z,0.75
2023-09-23T10:51:43.881Z,1.48
2023-09-23T10:52:46.183Z,0.68
2023-09-23T10:53:51.534Z,1.00
2023-09-23T10:54:55.033Z,0.85
2023-09-23T10:55:59.274Z,1.55
2023-09-23T10:57:03.052Z,1.85
2023-09-23T10:58:06.271Z,0.68
2023-09-23T10:59:08.733Z,1.13
2023-09-23T11:00:18.311Z,1.55
2023-09-23T11:01:24.256Z,3.35
2023-09-23T11:02:26.928Z,2.15
2023-09-23T11:03:30.719Z,1.67
2023-09-23T11:04:34.871Z,3.30
2023-09-23T11:05:44.799Z,1.10
2023-09-23T11:06:47.258Z,5.32
2023-09-23T11:07:50.707Z,1.70
2023-09-23T11:08:53.224Z,2.95
2023-09-23T11:09:55.594Z,2.78
2023-09-23T11:10:59.096Z,0.85
2023-09-23T11:12:11.990Z,2.17
2023-09-23T11:13:15.732Z,1.83
2023-09-23T11:14:22.297Z,0.98
2023-09-23T11:15:24.807Z,1.10
2023-09-23T11:16:27.261Z,5.45
2023-09-23T11:17:33.665Z,1.67
2023-09-23T11:18:37.788Z,8.05
2023-09-23T11:19:40.015Z,0.80
2023-09-23T11:20:44.395Z,1.35
2023-09-23T11:21:50.660Z,2.53
2023-09-23T11:23:05.005Z,2.67
2023-09-23T11:24:08.417Z,1.20
2023-09-23T11:25:11.261Z,1.50
2023-09-23T11:26:14.853Z,1.13
2023-09-23T11:27:18.337Z,1.27
2023-09-23T11:28:26.139Z,1.00
2023-09-23T11:29:29.960Z,1.13
2023-09-23T11:30:33.530Z,3.03
2023-09-23T11:31:36.517Z,1.98
2023-09-23T11:32:39.191Z,0.82
2023-09-23T11:33:41.625Z,2.28
2023-09-23T11:34:44.014Z,3.70
2023-09-23T11:35:46.746Z,0.65
2023-09-23T11:36:49.958Z,0.98
2023-09-23T11:37:55.530Z,0.93
2023-09-23T11:38:57.966Z,3.60
2023-09-23T11:40:00.311Z,0.80
2023-09-23T11:41:02.973Z,0.90
2023-09-23T11:42:06.540Z,5.50
2023-09-23T11:43:09.024Z,1.33
2023-09-23T11:44:11.330Z,1.02
2023-09-23T11:45:13.677Z,1.00
2023-09-23T11:46:17.337Z,2.20
2023-09-23T11:47:22.524Z,1.25
2023-09-23T11:48:25.062Z,3.35
2023-09-23T11:49:27.823Z,1.27
2023-09-23T11:50:31.090Z,1.60
2023-09-23T11:51:33.435Z,0.93
2023-09-23T11:52:36.240Z,1.48
2023-09-23T11:53:39.459Z,2.35
2023-09-23T11:54:42.363Z,3.33
2023-09-23T11:55:44.830Z,2.33
2023-09-23T11:56:47.181Z,1.67
2023-09-23T11:57:50.196Z,1.90
2023-09-23T11:59:05.776Z,3.60
2023-09-23T12:00:12.128Z,0.98
2023-09-23T12:01:14.606Z,1.85
2023-09-23T12:02:16.960Z,1.30
2023-09-23T12:03:19.992Z,1.20
2023-09-23T12:04:22.528Z,1.73
2023-09-23T12:05:31.013Z,1.20
2023-09-23T12:06:37.847Z,1.48
2023-09-23T12:07:40.633Z,1.10
2023-09-23T12:08:42.931Z,1.15
2023-09-23T12:09:45.704Z,1.02
2023-09-23T12:10:48.282Z,1.20
2023-09-23T12:11:51.676Z,1.25
2023-09-23T12:12:54.084Z,1.45
2023-09-23T12:13:56.456Z,1.45
2023-09-23T12:14:58.960Z,0.85
2023-09-23T12:16:01.368Z,1.25
2023-09-23T12:17:04.476Z,2.10
2023-09-23T12:18:07.498Z,3.63
2023-09-23T12:19:09.992Z,1.25
2023-09-23T12:20:13.304Z,0.98
2023-09-23T12:21:16.445Z,0.98
2023-09-23T12:22:19.018Z,1.20
2023-09-23T12:23:21.897Z,1.17
2023-09-23T12:24:24.294Z,3.38
2023-09-23T12:25:26.704Z,1.90
2023-09-23T12:26:30.097Z,2.25
2023-09-23T12:27:32.490Z,1.50
2023-09-23T12:28:34.769Z,1.55
2023-09-23T12:29:37.204Z,2.63
2023-09-23T12:30:39.572Z,0.80
2023-09-23T12:31:42.095Z,1.85
2023-09-23T12:32:44.965Z,1.35
2023-09-23T12:33:47.488Z,4.40
2023-09-23T12:34:50.657Z,1.10
2023-09-23T12:35:53.436Z,2.53
2023-09-23T12:36:56.000Z,1.98
2023-09-23T12:37:58.581Z,1.35
2023-09-23T12:39:01.148Z,1.85
2023-09-23T12:40:08.173Z,2.25
2023-09-23T12:41:10.682Z,2.10
2023-09-23T12:42:13.053Z,1.60
2023-09-23T12:43:15.439Z,1.00
2023-09-23T12:44:18.772Z,3.20
2023-09-23T12:45:21.162Z,1.08
2023-09-23T12:46:23.469Z,1.05
2023-09-23T12:47:26.458Z,1.42
2023-09-23T12:48:33.162Z,1.67
2023-09-23T12:49:35.690Z,1.13
2023-09-23T12:50:38.177Z,1.67
2023-09-23T12:51:40.819Z,1.52
2023-09-23T12:52:43.574Z,2.50
2023-09-23T12:53:46.123Z,3.28
2023-09-23T12:54:48.471Z,3.00
2023-09-23T12:55:51.070Z,1.95
2023-09-23T12:56:53.448Z,3.17
2023-09-23T12:57:56.423Z,3.17
2023-09-23T12:58:58.814Z,1.58
2023-09-23T13:00:02.607Z,3.63
2023-09-23T13:01:05.693Z,3.05
2023-09-23T13:02:08.044Z,2.03
2023-09-23T13:03:11.998Z,1.75
2023-09-23T13:04:14.960Z,1.27
2023-09-23T13:05:17.835Z,2.22
2023-09-23T13:06:20.196Z,2.13
2023-09-23T13:07:22.635Z,3.25
2023-09-23T13:08:25.182Z,1.45
2023-09-23T13:09:27.702Z,2.17
2023-09-23T13:10:30.300Z,2.08
2023-09-23T13:11:32.730Z,4.93
2023-09-23T13:12:35.087Z,3.92
2023-09-23T13:13:37.736Z,1.50
2023-09-23T13:14:40.096Z,2.28
2023-09-23T13:15:42.574Z,2.63
2023-09-23T13:16:46.999Z,3.70
2023-09-23T13:17:51.305Z,2.05
2023-09-23T13:18:54.179Z,2.38
2023-09-23T13:19:56.938Z,5.63
2023-09-23T13:20:59.296Z,2.90
2023-09-23T13:22:01.972Z,3.58
2023-09-23T13:23:05.994Z,2.80
2023-09-23T13:24:08.542Z,4.10
2023-09-23T13:25:12.318Z,2.45
2023-09-23T13:26:14.740Z,2.47
2023-09-23T13:27:17.271Z,1.90
2023-09-23T13:28:19.724Z,2.22
2023-09-23T13:29:22.114Z,3.55
2023-09-23T13:30:24.698Z,2.10
2023-09-23T13:31:27.351Z,3.47
2023-09-23T13:32:30.127Z,1.67
2023-09-23T13:33:33.015Z,2.00
2023-09-23T13:34:35.327Z,3.00
2023-09-23T13:35:38.206Z,3.10
2023-09-23T13:36:40.674Z,4.18
2023-09-23T13:37:44.371Z,1.98
2023-09-23T13:38:48.024Z,3.92
2023-09-23T13:39:50.595Z,2.92
2023-09-23T13:40:53.301Z,2.40
2023-09-23T13:41:56.360Z,1.45
2023-09-23T13:42:58.926Z,1.85
2023-09-23T13:44:01.319Z,1.77
2023-09-23T13:45:06.113Z,2.03
2023-09-23T13:46:08.427Z,2.00
2023-09-23T13:47:11.077Z,2.67
2023-09-23T13:48:13.564Z,4.43
2023-09-23T13:49:15.856Z,2.20
2023-09-23T13:50:19.017Z,2.75
2023-09-23T13:51:22.580Z,3.90
2023-09-23T13:52:24.921Z,2.05
2023-09-23T13:53:27.226Z,3.60
2023-09-23T13:54:30.221Z,3.75
2023-09-23T13:55:32.598Z,1.45
2023-09-23T13:56:35.037Z,3.15
2023-09-23T13:57:37.483Z,3.38
2023-09-23T13:58:39.966Z,2.08
2023-09-23T13:59:42.247Z,3.17
2023-09-23T14:00:44.579Z,1.63
2023-09-23T14:01:46.930Z,2.42